sensor_id;sensor_type;location;lat;lon;timestamp;pressure;altitude;pressure_sealevel;temperature;humidity
11856;BME280;5987;53.140;8.904;2022-08-19T00:02:43;101293.41;;;16.11;92.56
11856;BME280;5987;53.140;8.904;2022-08-19T00:05:51;101292.69;;;16.07;92.41
11856;BME280;5987;53.140;8.904;2022-08-19T00:08:58;101297.44;;;16.18;92.71
11856;BME280;5987;53.140;8.904;2022-08-19T00:12:03;101302.34;;;16.26;92.69
11856;BME280;5987;53.140;8.904;2022-08-19T00:15:12;101301.31;;;16.28;92.47
11856;BME280;5987;53.140;8.904;2022-08-19T00:18:16;101295.88;;;16.32;92.39
11856;BME280;5987;53.140;8.904;2022-08-19T00:21:20;101287.75;;;16.35;92.25
11856;BME280;5987;53.140;8.904;2022-08-19T00:24:26;101292.97;;;16.36;92.11
11856;BME280;5987;53.140;8.904;2022-08-19T00:27:31;101302.19;;;16.45;92.26
11856;BME280;5987;53.140;8.904;2022-08-19T00:30:35;101298.63;;;16.46;91.99
11856;BME280;5987;53.140;8.904;2022-08-19T00:33:39;101294.00;;;16.50;91.88
11856;BME280;5987;53.140;8.904;2022-08-19T00:36:43;101298.97;;;16.56;91.92
11856;BME280;5987;53.140;8.904;2022-08-19T00:39:48;101303.94;;;16.62;91.74
11856;BME280;5987;53.140;8.904;2022-08-19T00:42:53;101304.38;;;16.70;91.68
11856;BME280;5987;53.140;8.904;2022-08-19T00:45:57;101294.69;;;16.69;91.34
11856;BME280;5987;53.140;8.904;2022-08-19T00:49:02;101294.59;;;16.71;91.21
11856;BME280;5987;53.140;8.904;2022-08-19T00:52:15;101299.50;;;16.78;91.24
11856;BME280;5987;53.140;8.904;2022-08-19T00:55:26;101297.13;;;16.74;90.81
11856;BME280;5987;53.140;8.904;2022-08-19T00:58:34;101293.84;;;16.69;90.92
11856;BME280;5987;53.140;8.904;2022-08-19T01:01:42;101303.34;;;16.73;90.95
11856;BME280;5987;53.140;8.904;2022-08-19T01:04:46;101297.97;;;16.74;90.94
11856;BME280;5987;53.140;8.904;2022-08-19T01:07:51;101290.28;;;16.70;91.00
11856;BME280;5987;53.140;8.904;2022-08-19T01:10:59;101294.19;;;16.62;90.98
11856;BME280;5987;53.140;8.904;2022-08-19T01:14:04;101292.31;;;16.64;91.38
11856;BME280;5987;53.140;8.904;2022-08-19T01:17:10;101288.72;;;16.66;91.50
11856;BME280;5987;53.140;8.904;2022-08-19T01:20:19;101282.72;;;16.62;91.42
11856;BME280;5987;53.140;8.904;2022-08-19T01:23:25;101277.34;;;16.63;91.48
11856;BME280;5987;53.140;8.904;2022-08-19T01:26:45;101265.72;;;16.66;91.57
11856;BME280;5987;53.140;8.904;2022-08-19T01:29:50;101269.56;;;16.60;91.38
11856;BME280;5987;53.140;8.904;2022-08-19T01:32:55;101267.84;;;16.59;91.56
11856;BME280;5987;53.140;8.904;2022-08-19T01:36:06;101263.41;;;16.60;91.74
11856;BME280;5987;53.140;8.904;2022-08-19T01:39:15;101248.69;;;16.54;91.64
11856;BME280;5987;53.140;8.904;2022-08-19T01:42:20;101247.06;;;16.52;91.75
11856;BME280;5987;53.140;8.904;2022-08-19T01:45:33;101237.91;;;16.57;91.98
11856;BME280;5987;53.140;8.904;2022-08-19T01:48:41;101246.81;;;16.56;91.89
11856;BME280;5987;53.140;8.904;2022-08-19T01:51:47;101245.69;;;16.60;91.93
11856;BME280;5987;53.140;8.904;2022-08-19T01:54:53;101243.31;;;16.56;91.68
11856;BME280;5987;53.140;8.904;2022-08-19T01:58:00;101240.75;;;16.54;91.77
11856;BME280;5987;53.140;8.904;2022-08-19T02:01:07;101233.72;;;16.53;91.73
11856;BME280;5987;53.140;8.904;2022-08-19T02:04:11;101241.50;;;16.56;91.60
11856;BME280;5987;53.140;8.904;2022-08-19T02:07:15;101236.72;;;16.63;91.58
11856;BME280;5987;53.140;8.904;2022-08-19T02:10:22;101243.03;;;16.60;91.22
11856;BME280;5987;53.140;8.904;2022-08-19T02:13:27;101235.09;;;16.60;91.19
11856;BME280;5987;53.140;8.904;2022-08-19T02:16:31;101233.38;;;16.59;91.13
11856;BME280;5987;53.140;8.904;2022-08-19T02:19:36;101225.59;;;16.56;90.93
11856;BME280;5987;53.140;8.904;2022-08-19T02:22:43;101221.16;;;16.57;91.12
11856;BME280;5987;53.140;8.904;2022-08-19T02:25:48;101215.06;;;16.55;91.16
11856;BME280;5987;53.140;8.904;2022-08-19T02:28:52;101206.47;;;16.51;91.13
11856;BME280;5987;53.140;8.904;2022-08-19T02:31:57;101202.69;;;16.55;91.24
11856;BME280;5987;53.140;8.904;2022-08-19T02:35:01;101206.28;;;16.54;91.19
11856;BME280;5987;53.140;8.904;2022-08-19T02:38:13;101206.09;;;16.57;91.12
11856;BME280;5987;53.140;8.904;2022-08-19T02:41:33;101201.72;;;16.56;90.86
11856;BME280;5987;53.140;8.904;2022-08-19T02:44:37;101202.59;;;16.57;90.92
11856;BME280;5987;53.140;8.904;2022-08-19T02:47:41;101213.44;;;16.52;90.87
11856;BME280;5987;53.140;8.904;2022-08-19T02:50:46;101215.00;;;16.56;91.18
11856;BME280;5987;53.140;8.904;2022-08-19T02:53:54;101217.81;;;16.53;90.68
11856;BME280;5987;53.140;8.904;2022-08-19T02:57:00;101210.78;;;16.52;90.71
11856;BME280;5987;53.140;8.904;2022-08-19T03:00:06;101214.16;;;16.56;90.81
11856;BME280;5987;53.140;8.904;2022-08-19T03:03:10;101200.06;;;16.55;90.73
11856;BME280;5987;53.140;8.904;2022-08-19T03:06:16;101204.56;;;16.53;90.51
11856;BME280;5987;53.140;8.904;2022-08-19T03:09:20;101205.41;;;16.54;90.47
11856;BME280;5987;53.140;8.904;2022-08-19T03:12:25;101202.84;;;16.52;90.37
11856;BME280;5987;53.140;8.904;2022-08-19T03:15:29;101200.97;;;16.54;90.64
11856;BME280;5987;53.140;8.904;2022-08-19T03:18:32;101204.22;;;16.59;90.64
11856;BME280;5987;53.140;8.904;2022-08-19T03:21:36;101219.28;;;16.59;90.51
11856;BME280;5987;53.140;8.904;2022-08-19T03:24:40;101237.16;;;16.55;90.65
11856;BME280;5987;53.140;8.904;2022-08-19T03:27:46;101237.06;;;16.57;90.73
11856;BME280;5987;53.140;8.904;2022-08-19T03:30:59;101234.91;;;16.63;90.75
11856;BME280;5987;53.140;8.904;2022-08-19T03:34:05;101237.75;;;16.60;90.44
11856;BME280;5987;53.140;8.904;2022-08-19T03:37:11;101232.63;;;16.57;90.23
11856;BME280;5987;53.140;8.904;2022-08-19T03:40:15;101227.13;;;16.60;90.17
11856;BME280;5987;53.140;8.904;2022-08-19T03:43:22;101227.91;;;16.62;90.18
11856;BME280;5987;53.140;8.904;2022-08-19T03:46:28;101221.84;;;16.60;89.67
11856;BME280;5987;53.140;8.904;2022-08-19T03:49:33;101229.88;;;16.59;89.42
11856;BME280;5987;53.140;8.904;2022-08-19T03:52:38;101231.44;;;16.47;88.63
11856;BME280;5987;53.140;8.904;2022-08-19T03:55:46;101240.75;;;16.54;88.27
11856;BME280;5987;53.140;8.904;2022-08-19T03:58:52;101244.75;;;16.61;87.93
11856;BME280;5987;53.140;8.904;2022-08-19T04:01:58;101252.72;;;16.61;87.39
11856;BME280;5987;53.140;8.904;2022-08-19T04:05:03;101254.59;;;16.59;87.06
11856;BME280;5987;53.140;8.904;2022-08-19T04:08:07;101251.94;;;16.59;86.96
11856;BME280;5987;53.140;8.904;2022-08-19T04:11:19;101240.56;;;16.57;86.79
11856;BME280;5987;53.140;8.904;2022-08-19T04:14:45;101240.03;;;16.51;86.58
11856;BME280;5987;53.140;8.904;2022-08-19T04:17:48;101241.59;;;16.55;86.42
11856;BME280;5987;53.140;8.904;2022-08-19T04:20:52;101256.28;;;16.60;86.31
11856;BME280;5987;53.140;8.904;2022-08-19T04:23:57;101261.94;;;16.54;86.06
11856;BME280;5987;53.140;8.904;2022-08-19T04:27:01;101257.41;;;16.56;85.84
11856;BME280;5987;53.140;8.904;2022-08-19T04:30:09;101255.88;;;16.52;85.67
11856;BME280;5987;53.140;8.904;2022-08-19T04:33:16;101251.66;;;16.48;85.43
11856;BME280;5987;53.140;8.904;2022-08-19T04:36:33;101249.00;;;16.48;85.54
11856;BME280;5987;53.140;8.904;2022-08-19T04:39:38;101257.75;;;16.50;85.56
11856;BME280;5987;53.140;8.904;2022-08-19T04:43:03;101248.25;;;16.46;85.41
11856;BME280;5987;53.140;8.904;2022-08-19T04:46:11;101251.09;;;16.43;85.68
11856;BME280;5987;53.140;8.904;2022-08-19T04:49:35;101242.53;;;16.38;85.72
11856;BME280;5987;53.140;8.904;2022-08-19T04:52:40;101248.84;;;16.35;85.87
11856;BME280;5987;53.140;8.904;2022-08-19T04:55:45;101256.88;;;16.34;86.10
11856;BME280;5987;53.140;8.904;2022-08-19T04:58:49;101259.22;;;16.40;86.28
11856;BME280;5987;53.140;8.904;2022-08-19T05:01:55;101267.00;;;16.43;85.99
11856;BME280;5987;53.140;8.904;2022-08-19T05:04:59;101258.59;;;16.35;85.90
11856;BME280;5987;53.140;8.904;2022-08-19T05:08:03;101257.13;;;16.29;86.25
11856;BME280;5987;53.140;8.904;2022-08-19T05:11:12;101259.63;;;16.32;86.59
11856;BME280;5987;53.140;8.904;2022-08-19T05:14:16;101270.91;;;16.36;86.79
11856;BME280;5987;53.140;8.904;2022-08-19T05:17:21;101262.53;;;16.27;86.75
11856;BME280;5987;53.140;8.904;2022-08-19T05:20:30;101273.28;;;16.24;86.76
11856;BME280;5987;53.140;8.904;2022-08-19T05:23:51;101271.88;;;16.17;87.08
11856;BME280;5987;53.140;8.904;2022-08-19T05:26:56;101271.81;;;16.19;87.53
11856;BME280;5987;53.140;8.904;2022-08-19T05:30:00;101271.41;;;16.26;87.61
11856;BME280;5987;53.140;8.904;2022-08-19T05:33:05;101267.28;;;16.21;87.58
11856;BME280;5987;53.140;8.904;2022-08-19T05:36:11;101271.13;;;16.15;87.74
11856;BME280;5987;53.140;8.904;2022-08-19T05:39:18;101276.41;;;16.15;88.06
11856;BME280;5987;53.140;8.904;2022-08-19T05:42:22;101277.53;;;16.27;88.65
11856;BME280;5987;53.140;8.904;2022-08-19T05:45:27;101283.19;;;16.37;88.91
11856;BME280;5987;53.140;8.904;2022-08-19T05:48:32;101275.34;;;16.35;88.64
11856;BME280;5987;53.140;8.904;2022-08-19T05:51:36;101262.00;;;16.37;88.84
11856;BME280;5987;53.140;8.904;2022-08-19T05:54:41;101253.47;;;16.48;88.80
11856;BME280;5987;53.140;8.904;2022-08-19T05:57:45;101259.53;;;16.34;88.49
11856;BME280;5987;53.140;8.904;2022-08-19T06:00:49;101265.09;;;16.45;88.95
11856;BME280;5987;53.140;8.904;2022-08-19T06:03:56;101259.97;;;16.42;88.62
11856;BME280;5987;53.140;8.904;2022-08-19T06:06:59;101262.28;;;16.48;88.69
11856;BME280;5987;53.140;8.904;2022-08-19T06:10:14;101264.88;;;16.66;88.85
11856;BME280;5987;53.140;8.904;2022-08-19T06:13:18;101277.09;;;17.16;88.36
11856;BME280;5987;53.140;8.904;2022-08-19T06:16:22;101273.59;;;17.76;87.52
11856;BME280;5987;53.140;8.904;2022-08-19T06:19:30;101283.00;;;17.52;83.57
11856;BME280;5987;53.140;8.904;2022-08-19T06:22:38;101265.81;;;17.43;84.44
11856;BME280;5987;53.140;8.904;2022-08-19T06:25:42;101267.59;;;17.42;82.81
11856;BME280;5987;53.140;8.904;2022-08-19T06:28:47;101267.19;;;17.64;82.64
11856;BME280;5987;53.140;8.904;2022-08-19T06:31:56;101269.81;;;17.50;81.76
11856;BME280;5987;53.140;8.904;2022-08-19T06:35:02;101288.50;;;17.48;81.01
11856;BME280;5987;53.140;8.904;2022-08-19T06:38:05;101278.50;;;17.82;80.56
11856;BME280;5987;53.140;8.904;2022-08-19T06:41:09;101289.78;;;17.72;79.88
11856;BME280;5987;53.140;8.904;2022-08-19T06:44:14;101282.25;;;17.94;79.59
11856;BME280;5987;53.140;8.904;2022-08-19T06:47:21;101278.66;;;17.95;79.42
11856;BME280;5987;53.140;8.904;2022-08-19T06:50:31;101278.84;;;18.07;78.86
11856;BME280;5987;53.140;8.904;2022-08-19T06:53:37;101280.06;;;18.01;79.19
11856;BME280;5987;53.140;8.904;2022-08-19T06:56:43;101281.59;;;18.20;78.43
11856;BME280;5987;53.140;8.904;2022-08-19T06:59:48;101286.81;;;18.07;76.90
11856;BME280;5987;53.140;8.904;2022-08-19T07:02:51;101289.19;;;18.11;76.55
11856;BME280;5987;53.140;8.904;2022-08-19T07:06:06;101288.09;;;17.85;76.92
11856;BME280;5987;53.140;8.904;2022-08-19T07:09:22;101290.06;;;17.97;78.14
11856;BME280;5987;53.140;8.904;2022-08-19T07:12:27;101297.00;;;17.84;77.44
11856;BME280;5987;53.140;8.904;2022-08-19T07:15:32;101300.31;;;18.18;77.38
11856;BME280;5987;53.140;8.904;2022-08-19T07:18:38;101310.38;;;18.13;76.91
11856;BME280;5987;53.140;8.904;2022-08-19T07:21:48;101311.88;;;18.17;76.28
11856;BME280;5987;53.140;8.904;2022-08-19T07:24:54;101306.66;;;18.15;75.98
11856;BME280;5987;53.140;8.904;2022-08-19T07:27:58;101306.97;;;18.40;75.91
11856;BME280;5987;53.140;8.904;2022-08-19T07:31:02;101314.47;;;18.33;75.91
11856;BME280;5987;53.140;8.904;2022-08-19T07:34:09;101317.41;;;18.43;75.61
11856;BME280;5987;53.140;8.904;2022-08-19T07:37:16;101321.66;;;18.31;75.17
11856;BME280;5987;53.140;8.904;2022-08-19T07:40:19;101330.28;;;18.63;74.38
11856;BME280;5987;53.140;8.904;2022-08-19T07:43:23;101334.09;;;18.88;74.24
11856;BME280;5987;53.140;8.904;2022-08-19T07:46:42;101341.13;;;18.75;71.66
11856;BME280;5987;53.140;8.904;2022-08-19T07:49:50;101343.19;;;18.84;72.17
11856;BME280;5987;53.140;8.904;2022-08-19T07:52:55;101350.72;;;18.92;70.49
11856;BME280;5987;53.140;8.904;2022-08-19T07:55:59;101343.09;;;19.00;70.28
11856;BME280;5987;53.140;8.904;2022-08-19T07:59:06;101351.94;;;19.00;69.82
11856;BME280;5987;53.140;8.904;2022-08-19T08:02:11;101358.66;;;19.48;69.08
11856;BME280;5987;53.140;8.904;2022-08-19T08:05:15;101348.50;;;19.13;68.89
11856;BME280;5987;53.140;8.904;2022-08-19T08:08:38;101343.00;;;19.29;68.00
11856;BME280;5987;53.140;8.904;2022-08-19T08:12:05;101343.41;;;19.50;67.25
11856;BME280;5987;53.140;8.904;2022-08-19T08:15:43;101342.72;;;19.33;66.72
11856;BME280;5987;53.140;8.904;2022-08-19T08:18:47;101349.88;;;19.46;67.29
11856;BME280;5987;53.140;8.904;2022-08-19T08:21:56;101347.50;;;20.09;66.21
11856;BME280;5987;53.140;8.904;2022-08-19T08:25:05;101347.38;;;19.97;64.75
11856;BME280;5987;53.140;8.904;2022-08-19T08:28:10;101354.31;;;20.51;66.29
11856;BME280;5987;53.140;8.904;2022-08-19T08:31:19;101350.22;;;20.71;64.10
11856;BME280;5987;53.140;8.904;2022-08-19T08:34:23;101359.19;;;21.20;61.18
11856;BME280;5987;53.140;8.904;2022-08-19T08:37:27;101360.41;;;21.28;60.43
11856;BME280;5987;53.140;8.904;2022-08-19T08:40:43;101357.56;;;21.18;59.66
11856;BME280;5987;53.140;8.904;2022-08-19T08:43:51;101359.81;;;20.87;61.38
11856;BME280;5987;53.140;8.904;2022-08-19T08:47:02;101367.66;;;21.38;61.25
11856;BME280;5987;53.140;8.904;2022-08-19T08:50:14;101370.16;;;21.29;60.64
11856;BME280;5987;53.140;8.904;2022-08-19T08:53:22;101360.91;;;20.84;60.51
11856;BME280;5987;53.140;8.904;2022-08-19T08:56:34;101368.06;;;21.08;61.07
11856;BME280;5987;53.140;8.904;2022-08-19T08:59:41;101372.59;;;21.56;59.46
11856;BME280;5987;53.140;8.904;2022-08-19T09:02:47;101368.56;;;21.26;59.86
11856;BME280;5987;53.140;8.904;2022-08-19T09:06:00;101362.63;;;21.82;59.11
11856;BME280;5987;53.140;8.904;2022-08-19T09:09:14;101360.66;;;21.00;59.77
11856;BME280;5987;53.140;8.904;2022-08-19T09:12:30;101367.84;;;21.84;60.18
11856;BME280;5987;53.140;8.904;2022-08-19T09:15:43;101374.41;;;21.31;57.90
11856;BME280;5987;53.140;8.904;2022-08-19T09:18:52;101362.56;;;21.59;59.67
11856;BME280;5987;53.140;8.904;2022-08-19T09:21:56;101355.69;;;22.15;56.37
11856;BME280;5987;53.140;8.904;2022-08-19T09:25:03;101352.97;;;22.04;57.59
11856;BME280;5987;53.140;8.904;2022-08-19T09:28:10;101337.38;;;21.86;56.46
11856;BME280;5987;53.140;8.904;2022-08-19T09:31:27;101346.38;;;22.55;55.73
11856;BME280;5987;53.140;8.904;2022-08-19T09:34:32;101344.28;;;22.58;56.31
11856;BME280;5987;53.140;8.904;2022-08-19T09:37:45;101348.22;;;21.96;55.81
11856;BME280;5987;53.140;8.904;2022-08-19T09:40:49;101341.03;;;22.08;56.42
11856;BME280;5987;53.140;8.904;2022-08-19T09:43:56;101335.38;;;22.24;54.77
11856;BME280;5987;53.140;8.904;2022-08-19T09:47:00;101348.63;;;21.67;56.17
11856;BME280;5987;53.140;8.904;2022-08-19T09:50:05;101342.38;;;22.14;55.32
11856;BME280;5987;53.140;8.904;2022-08-19T09:53:09;101342.47;;;21.89;56.38
11856;BME280;5987;53.140;8.904;2022-08-19T09:56:14;101352.88;;;22.28;55.84
11856;BME280;5987;53.140;8.904;2022-08-19T09:59:22;101345.50;;;22.54;55.45
11856;BME280;5987;53.140;8.904;2022-08-19T10:02:26;101342.66;;;22.22;55.33
11856;BME280;5987;53.140;8.904;2022-08-19T10:05:30;101345.63;;;22.41;55.01
11856;BME280;5987;53.140;8.904;2022-08-19T10:08:56;101334.59;;;21.99;55.89
11856;BME280;5987;53.140;8.904;2022-08-19T10:12:01;101336.75;;;22.41;56.47
11856;BME280;5987;53.140;8.904;2022-08-19T10:15:09;101325.31;;;22.39;55.20
11856;BME280;5987;53.140;8.904;2022-08-19T10:18:15;101317.16;;;22.52;55.93
11856;BME280;5987;53.140;8.904;2022-08-19T10:21:24;101320.06;;;22.37;55.21
11856;BME280;5987;53.140;8.904;2022-08-19T10:24:29;101314.53;;;21.93;55.63
11856;BME280;5987;53.140;8.904;2022-08-19T10:27:33;101320.53;;;22.08;56.22
11856;BME280;5987;53.140;8.904;2022-08-19T10:30:39;101324.41;;;22.16;53.61
11856;BME280;5987;53.140;8.904;2022-08-19T10:33:44;101320.53;;;22.31;54.87
11856;BME280;5987;53.140;8.904;2022-08-19T10:36:56;101326.41;;;22.36;54.89
11856;BME280;5987;53.140;8.904;2022-08-19T10:40:05;101323.75;;;22.36;55.07
11856;BME280;5987;53.140;8.904;2022-08-19T10:43:10;101309.63;;;22.34;55.21
11856;BME280;5987;53.140;8.904;2022-08-19T10:46:15;101308.75;;;22.68;53.35
11856;BME280;5987;53.140;8.904;2022-08-19T10:49:20;101296.34;;;22.55;52.96
11856;BME280;5987;53.140;8.904;2022-08-19T10:52:25;101293.56;;;22.34;53.76
11856;BME280;5987;53.140;8.904;2022-08-19T10:55:40;101290.59;;;22.71;53.44
11856;BME280;5987;53.140;8.904;2022-08-19T10:59:12;101302.75;;;22.75;53.49
11856;BME280;5987;53.140;8.904;2022-08-19T11:02:18;101306.22;;;22.55;53.62
11856;BME280;5987;53.140;8.904;2022-08-19T11:05:21;101311.28;;;22.81;52.29
11856;BME280;5987;53.140;8.904;2022-08-19T11:08:26;101308.13;;;22.75;52.87
11856;BME280;5987;53.140;8.904;2022-08-19T11:11:29;101294.47;;;22.90;51.76
11856;BME280;5987;53.140;8.904;2022-08-19T11:14:39;101309.47;;;22.70;51.83
11856;BME280;5987;53.140;8.904;2022-08-19T11:17:44;101305.22;;;22.44;53.28
11856;BME280;5987;53.140;8.904;2022-08-19T11:20:48;101296.66;;;22.85;52.85
11856;BME280;5987;53.140;8.904;2022-08-19T11:23:55;101295.66;;;22.97;52.85
11856;BME280;5987;53.140;8.904;2022-08-19T11:27:04;101301.88;;;22.98;52.99
11856;BME280;5987;53.140;8.904;2022-08-19T11:30:10;101295.31;;;22.90;52.47
11856;BME280;5987;53.140;8.904;2022-08-19T11:33:16;101294.25;;;22.82;52.79
11856;BME280;5987;53.140;8.904;2022-08-19T11:36:21;101295.75;;;23.07;52.01
11856;BME280;5987;53.140;8.904;2022-08-19T11:39:28;101286.34;;;22.80;51.39
11856;BME280;5987;53.140;8.904;2022-08-19T11:42:32;101287.41;;;22.89;51.14
11856;BME280;5987;53.140;8.904;2022-08-19T11:45:54;101279.53;;;23.20;51.58
11856;BME280;5987;53.140;8.904;2022-08-19T11:49:01;101281.50;;;23.18;50.29
11856;BME280;5987;53.140;8.904;2022-08-19T11:52:06;101284.59;;;23.34;50.13
11856;BME280;5987;53.140;8.904;2022-08-19T11:55:10;101262.28;;;23.87;49.49
11856;BME280;5987;53.140;8.904;2022-08-19T11:58:16;101274.47;;;24.01;48.56
11856;BME280;5987;53.140;8.904;2022-08-19T12:01:23;101265.56;;;23.79;48.02
11856;BME280;5987;53.140;8.904;2022-08-19T12:04:28;101269.81;;;23.82;48.15
11856;BME280;5987;53.140;8.904;2022-08-19T12:07:33;101264.28;;;23.95;47.31
11856;BME280;5987;53.140;8.904;2022-08-19T12:10:39;101257.28;;;23.61;46.80
11856;BME280;5987;53.140;8.904;2022-08-19T12:13:44;101260.16;;;23.91;46.55
11856;BME280;5987;53.140;8.904;2022-08-19T12:16:48;101249.50;;;24.10;46.12
11856;BME280;5987;53.140;8.904;2022-08-19T12:19:55;101252.56;;;24.27;46.02
11856;BME280;5987;53.140;8.904;2022-08-19T12:23:02;101242.09;;;24.24;45.42
11856;BME280;5987;53.140;8.904;2022-08-19T12:26:06;101242.13;;;24.34;45.38
11856;BME280;5987;53.140;8.904;2022-08-19T12:29:10;101242.38;;;24.21;45.92
11856;BME280;5987;53.140;8.904;2022-08-19T12:32:14;101249.75;;;24.38;44.84
11856;BME280;5987;53.140;8.904;2022-08-19T12:35:21;101250.88;;;24.36;44.96
11856;BME280;5987;53.140;8.904;2022-08-19T12:38:24;101253.19;;;24.50;44.38
11856;BME280;5987;53.140;8.904;2022-08-19T12:41:31;101259.66;;;24.78;44.81
11856;BME280;5987;53.140;8.904;2022-08-19T12:44:35;101254.50;;;24.56;43.69
11856;BME280;5987;53.140;8.904;2022-08-19T12:47:41;101241.91;;;24.15;43.56
11856;BME280;5987;53.140;8.904;2022-08-19T12:50:50;101236.25;;;24.59;43.86
11856;BME280;5987;53.140;8.904;2022-08-19T12:53:56;101229.75;;;24.52;43.07
11856;BME280;5987;53.140;8.904;2022-08-19T12:57:16;101221.09;;;24.48;43.59
11856;BME280;5987;53.140;8.904;2022-08-19T13:00:21;101221.66;;;24.42;43.34
11856;BME280;5987;53.140;8.904;2022-08-19T13:03:25;101235.38;;;24.49;42.73
11856;BME280;5987;53.140;8.904;2022-08-19T13:06:32;101232.19;;;24.65;43.34
11856;BME280;5987;53.140;8.904;2022-08-19T13:09:36;101235.41;;;24.59;43.34
11856;BME280;5987;53.140;8.904;2022-08-19T13:12:40;101231.50;;;24.63;43.38
11856;BME280;5987;53.140;8.904;2022-08-19T13:15:44;101232.34;;;24.73;42.42
11856;BME280;5987;53.140;8.904;2022-08-19T13:18:48;101247.28;;;24.56;41.95
11856;BME280;5987;53.140;8.904;2022-08-19T13:21:56;101234.31;;;24.61;42.15
11856;BME280;5987;53.140;8.904;2022-08-19T13:25:01;101234.19;;;24.63;41.81
11856;BME280;5987;53.140;8.904;2022-08-19T13:28:05;101231.28;;;24.45;42.12
11856;BME280;5987;53.140;8.904;2022-08-19T13:31:16;101227.41;;;24.28;40.64
11856;BME280;5987;53.140;8.904;2022-08-19T13:34:37;101228.34;;;24.58;39.40
11856;BME280;5987;53.140;8.904;2022-08-19T13:37:43;101234.34;;;24.71;39.23
11856;BME280;5987;53.140;8.904;2022-08-19T13:40:49;101230.00;;;24.39;37.85
11856;BME280;5987;53.140;8.904;2022-08-19T13:43:53;101231.13;;;24.37;36.21
11856;BME280;5987;53.140;8.904;2022-08-19T13:47:02;101223.75;;;24.29;34.66
11856;BME280;5987;53.140;8.904;2022-08-19T13:50:10;101223.59;;;24.81;34.38
11856;BME280;5987;53.140;8.904;2022-08-19T13:53:17;101226.13;;;24.63;34.05
11856;BME280;5987;53.140;8.904;2022-08-19T13:56:20;101221.09;;;24.48;34.02
11856;BME280;5987;53.140;8.904;2022-08-19T13:59:27;101221.25;;;24.57;34.52
11856;BME280;5987;53.140;8.904;2022-08-19T14:02:31;101221.31;;;24.76;34.36
11856;BME280;5987;53.140;8.904;2022-08-19T14:05:37;101216.25;;;24.83;34.19
11856;BME280;5987;53.140;8.904;2022-08-19T14:08:43;101219.38;;;24.98;33.90
11856;BME280;5987;53.140;8.904;2022-08-19T14:11:47;101220.78;;;24.82;34.52
11856;BME280;5987;53.140;8.904;2022-08-19T14:14:53;101207.88;;;25.15;34.82
11856;BME280;5987;53.140;8.904;2022-08-19T14:17:57;101210.88;;;24.83;34.53
11856;BME280;5987;53.140;8.904;2022-08-19T14:21:01;101203.50;;;25.34;34.95
11856;BME280;5987;53.140;8.904;2022-08-19T14:24:06;101206.03;;;25.26;35.73
11856;BME280;5987;53.140;8.904;2022-08-19T14:27:10;101200.25;;;25.30;35.61
11856;BME280;5987;53.140;8.904;2022-08-19T14:30:18;101200.38;;;25.48;35.60
11856;BME280;5987;53.140;8.904;2022-08-19T14:33:23;101206.03;;;25.26;36.75
11856;BME280;5987;53.140;8.904;2022-08-19T14:36:31;101210.28;;;25.09;36.99
11856;BME280;5987;53.140;8.904;2022-08-19T14:39:42;101217.38;;;24.80;37.03
11856;BME280;5987;53.140;8.904;2022-08-19T14:42:46;101220.22;;;24.98;36.94
11856;BME280;5987;53.140;8.904;2022-08-19T14:45:51;101218.63;;;25.25;36.52
11856;BME280;5987;53.140;8.904;2022-08-19T14:48:56;101213.72;;;25.01;37.72
11856;BME280;5987;53.140;8.904;2022-08-19T14:52:02;101216.53;;;25.29;37.71
11856;BME280;5987;53.140;8.904;2022-08-19T14:55:08;101219.63;;;25.34;37.30
11856;BME280;5987;53.140;8.904;2022-08-19T14:58:13;101219.06;;;25.21;37.24
11856;BME280;5987;53.140;8.904;2022-08-19T15:01:31;101220.50;;;25.34;38.22
11856;BME280;5987;53.140;8.904;2022-08-19T15:04:35;101224.44;;;25.11;38.09
11856;BME280;5987;53.140;8.904;2022-08-19T15:07:39;101224.16;;;24.94;38.07
11856;BME280;5987;53.140;8.904;2022-08-19T15:10:44;101221.91;;;25.09;38.79
11856;BME280;5987;53.140;8.904;2022-08-19T15:13:50;101225.88;;;25.05;38.96
11856;BME280;5987;53.140;8.904;2022-08-19T15:16:55;101231.50;;;25.22;39.16
11856;BME280;5987;53.140;8.904;2022-08-19T15:19:58;101230.66;;;25.41;38.95
11856;BME280;5987;53.140;8.904;2022-08-19T15:23:02;101238.28;;;25.45;38.82
11856;BME280;5987;53.140;8.904;2022-08-19T15:26:08;101240.44;;;25.03;38.96
11856;BME280;5987;53.140;8.904;2022-08-19T15:29:17;101242.53;;;24.99;38.98
11856;BME280;5987;53.140;8.904;2022-08-19T15:32:21;101241.13;;;24.95;38.93
11856;BME280;5987;53.140;8.904;2022-08-19T15:35:25;101246.50;;;24.95;39.10
11856;BME280;5987;53.140;8.904;2022-08-19T15:38:29;101234.34;;;25.10;39.86
11856;BME280;5987;53.140;8.904;2022-08-19T15:41:41;101237.16;;;24.99;40.56
11856;BME280;5987;53.140;8.904;2022-08-19T15:44:46;101238.56;;;25.23;40.62
11856;BME280;5987;53.140;8.904;2022-08-19T15:47:51;101234.19;;;25.22;40.02
11856;BME280;5987;53.140;8.904;2022-08-19T15:50:55;101241.13;;;25.14;40.13
11856;BME280;5987;53.140;8.904;2022-08-19T15:54:00;101238.88;;;25.29;40.33
11856;BME280;5987;53.140;8.904;2022-08-19T15:57:05;101236.47;;;25.16;40.00
11856;BME280;5987;53.140;8.904;2022-08-19T16:00:26;101234.22;;;24.92;40.13
11856;BME280;5987;53.140;8.904;2022-08-19T16:03:56;101227.00;;;24.83;39.71
11856;BME280;5987;53.140;8.904;2022-08-19T16:07:17;101244.81;;;24.94;39.77
11856;BME280;5987;53.140;8.904;2022-08-19T16:10:25;101238.72;;;25.02;39.45
11856;BME280;5987;53.140;8.904;2022-08-19T16:13:30;101229.69;;;24.93;39.51
11856;BME280;5987;53.140;8.904;2022-08-19T16:16:36;101231.66;;;24.71;39.64
11856;BME280;5987;53.140;8.904;2022-08-19T16:19:41;101234.59;;;24.78;39.95
11856;BME280;5987;53.140;8.904;2022-08-19T16:22:44;101228.69;;;24.74;39.69
11856;BME280;5987;53.140;8.904;2022-08-19T16:25:48;101223.69;;;24.60;39.69
11856;BME280;5987;53.140;8.904;2022-08-19T16:28:54;101225.72;;;24.87;39.22
11856;BME280;5987;53.140;8.904;2022-08-19T16:31:58;101228.91;;;24.52;39.12